createdAt,value
2022-11-24T00:01:16.084Z,87.00
2022-11-24T00:03:44.879Z,87.50
2022-11-24T00:06:15.404Z,87.80
2022-11-24T00:08:46.105Z,87.90
2022-11-24T00:11:16.777Z,87.60
2022-11-24T00:13:44.522Z,87.50
2022-11-24T00:16:13.128Z,87.50
2022-11-24T00:18:42.103Z,87.70
2022-11-24T00:21:09.678Z,87.80
2022-11-24T00:23:37.858Z,88.00
2022-11-24T00:26:17.002Z,87.70
2022-11-24T00:28:45.945Z,88.00
2022-11-24T00:31:23.290Z,87.80
2022-11-24T00:33:52.998Z,87.60
2022-11-24T00:36:21.877Z,87.20
2022-11-24T00:38:53.198Z,87.10
2022-11-24T00:41:20.757Z,86.90
2022-11-24T00:43:48.380Z,87.20
2022-11-24T00:46:15.973Z,87.00
2022-11-24T00:48:43.711Z,87.60
2022-11-24T00:51:14.034Z,87.50
2022-11-24T00:53:41.951Z,87.10
2022-11-24T00:56:10.641Z,87.40
2022-11-24T00:58:38.323Z,87.10
2022-11-24T01:01:14.535Z,86.80
2022-11-24T01:03:42.823Z,86.80
2022-11-24T01:06:13.810Z,86.60
2022-11-24T01:08:42.783Z,86.50
2022-11-24T01:11:16.273Z,86.60
2022-11-24T01:13:45.991Z,86.40
2022-11-24T01:16:19.503Z,86.40
2022-11-24T01:18:47.785Z,86.60
2022-11-24T01:21:16.248Z,86.30
2022-11-24T01:23:44.056Z,86.70
2022-11-24T01:26:14.845Z,86.60
2022-11-24T01:28:47.067Z,86.60
2022-11-24T01:31:16.586Z,86.40
2022-11-24T01:33:44.331Z,86.40
2022-11-24T01:36:12.305Z,86.60
2022-11-24T01:38:39.946Z,86.30
2022-11-24T01:41:17.944Z,86.70
2022-11-24T01:43:46.901Z,86.60
2022-11-24T01:46:17.138Z,86.80
2022-11-24T01:48:50.827Z,86.40
2022-11-24T01:51:25.658Z,86.60
2022-11-24T01:53:59.377Z,86.60
2022-11-24T01:56:28.876Z,86.70
2022-11-24T01:58:59.558Z,86.60
2022-11-24T02:01:29.609Z,86.80
2022-11-24T02:03:58.125Z,86.90
2022-11-24T02:06:32.256Z,87.00
2022-11-24T02:09:32.902Z,86.80
2022-11-24T02:12:02.944Z,87.00
2022-11-24T02:14:30.949Z,86.70
2022-11-24T02:16:58.657Z,86.70
2022-11-24T02:19:38.476Z,87.00
2022-11-24T02:22:08.686Z,87.20
2022-11-24T02:24:53.502Z,87.00
2022-11-24T02:27:21.263Z,86.90
2022-11-24T02:29:50.007Z,86.90
2022-11-24T02:32:18.856Z,87.10
2022-11-24T02:34:46.275Z,87.20
2022-11-24T02:37:13.806Z,87.10
2022-11-24T02:39:41.320Z,87.20
2022-11-24T02:42:14.144Z,86.90
2022-11-24T02:44:49.067Z,86.60
2022-11-24T02:47:16.958Z,86.30
2022-11-24T02:49:44.449Z,86.30
2022-11-24T02:52:12.015Z,86.00
2022-11-24T02:54:39.586Z,86.10
2022-11-24T02:57:07.088Z,86.00
2022-11-24T02:59:34.483Z,85.90
2022-11-24T03:02:02.288Z,86.20
2022-11-24T03:04:29.897Z,85.90
2022-11-24T03:06:58.004Z,85.90
2022-11-24T03:09:25.631Z,86.00
2022-11-24T03:11:53.176Z,85.70
2022-11-24T03:14:20.703Z,85.90
2022-11-24T03:16:48.175Z,86.10
2022-11-24T03:19:15.751Z,86.00
2022-11-24T03:21:43.437Z,86.00
2022-11-24T03:24:11.005Z,86.30
2022-11-24T03:26:38.715Z,86.00
2022-11-24T03:29:06.341Z,86.00
2022-11-24T03:31:34.022Z,86.20
2022-11-24T03:34:01.591Z,86.40
2022-11-24T03:36:29.131Z,86.50
2022-11-24T03:38:56.793Z,86.20
2022-11-24T03:41:24.383Z,86.00
2022-11-24T03:43:52.102Z,86.20
2022-11-24T03:46:19.661Z,86.20
2022-11-24T03:48:47.195Z,86.20
2022-11-24T03:51:14.691Z,86.10
2022-11-24T03:53:42.263Z,86.00
2022-11-24T03:56:09.897Z,86.20
2022-11-24T03:58:37.495Z,86.00
2022-11-24T04:01:05.057Z,86.40
2022-11-24T04:03:32.565Z,86.20
2022-11-24T04:06:00.196Z,86.40
2022-11-24T04:08:27.709Z,86.40
2022-11-24T04:10:56.737Z,86.50
2022-11-24T04:13:25.961Z,86.80
2022-11-24T04:15:53.668Z,86.50
2022-11-24T04:18:21.606Z,86.60
2022-11-24T04:20:52.656Z,86.60
2022-11-24T04:23:20.556Z,86.60
2022-11-24T04:25:48.286Z,86.40
2022-11-24T04:28:15.813Z,86.40
2022-11-24T04:30:45.259Z,86.40
2022-11-24T04:33:13.698Z,86.60
2022-11-24T04:35:41.395Z,86.10
2022-11-24T04:38:08.918Z,86.30
2022-11-24T04:40:36.341Z,86.60
2022-11-24T04:43:04.016Z,87.20
2022-11-24T04:45:31.444Z,87.20
2022-11-24T04:47:59.001Z,86.90
2022-11-24T04:50:26.688Z,86.80
2022-11-24T04:52:54.320Z,86.90
2022-11-24T04:55:22.056Z,86.80
2022-11-24T04:57:49.633Z,86.80
2022-11-24T05:00:17.753Z,86.80
2022-11-24T05:02:44.991Z,86.80
2022-11-24T05:05:12.531Z,87.00
2022-11-24T05:07:40.254Z,86.90
2022-11-24T05:10:26.639Z,87.00
2022-11-24T05:12:57.850Z,86.80
2022-11-24T05:15:25.566Z,87.00
2022-11-24T05:17:53.292Z,87.10
2022-11-24T05:20:20.822Z,87.10
2022-11-24T05:22:48.412Z,87.10
2022-11-24T05:25:16.044Z,87.20
2022-11-24T05:27:43.503Z,87.30
2022-11-24T05:30:12.812Z,87.40
2022-11-24T05:32:40.533Z,87.70
2022-11-24T05:35:10.109Z,87.40
2022-11-24T05:37:38.119Z,87.70
2022-11-24T05:40:07.268Z,87.80
2022-11-24T05:42:46.298Z,87.80
2022-11-24T05:45:17.754Z,88.00
2022-11-24T05:47:45.800Z,87.80
2022-11-24T05:50:15.521Z,88.70
2022-11-24T05:52:43.562Z,88.20
2022-11-24T05:55:12.486Z,96.50
2022-11-24T05:57:40.083Z,88.70
2022-11-24T06:00:09.723Z,86.90
2022-11-24T06:02:37.434Z,87.00
2022-11-24T06:05:05.392Z,87.10
2022-11-24T06:07:32.953Z,87.10
2022-11-24T06:10:00.445Z,87.70
2022-11-24T06:12:27.872Z,88.20
2022-11-24T06:14:55.392Z,95.60
2022-11-24T06:17:22.761Z,94.10
2022-11-24T06:19:51.995Z,87.70
2022-11-24T06:22:19.709Z,87.00
2022-11-24T06:24:47.595Z,86.80
2022-11-24T06:27:15.184Z,87.10
2022-11-24T06:29:43.704Z,87.80
2022-11-24T06:32:11.457Z,87.40
2022-11-24T06:34:39.256Z,87.50
2022-11-24T06:37:07.133Z,87.90
2022-11-24T06:39:34.869Z,87.90
2022-11-24T06:42:02.632Z,88.20
2022-11-24T06:44:30.193Z,88.30
2022-11-24T06:46:57.773Z,88.50
2022-11-24T06:49:25.363Z,88.50
2022-11-24T06:51:55.563Z,88.60
2022-11-24T06:54:23.330Z,88.50
2022-11-24T06:56:50.832Z,88.10
2022-11-24T06:59:20.917Z,88.10
2022-11-24T07:01:48.674Z,88.30
2022-11-24T07:04:16.608Z,88.50
2022-11-24T07:06:44.878Z,88.10
2022-11-24T07:09:13.878Z,88.10
2022-11-24T07:11:41.798Z,88.60
2022-11-24T07:14:10.283Z,88.40
2022-11-24T07:16:38.047Z,88.90
2022-11-24T07:19:05.793Z,87.80
2022-11-24T07:21:33.594Z,87.70
2022-11-24T07:24:01.069Z,88.10
2022-11-24T07:26:28.713Z,87.70
2022-11-24T07:28:56.318Z,87.50
2022-11-24T07:31:27.196Z,88.10
2022-11-24T07:33:55.992Z,88.00
2022-11-24T07:36:24.468Z,87.70
2022-11-24T07:38:52.111Z,87.80
2022-11-24T07:41:21.829Z,87.50
2022-11-24T07:43:50.988Z,87.80
2022-11-24T07:46:20.031Z,87.80
2022-11-24T07:48:48.358Z,87.70
2022-11-24T07:51:16.375Z,87.70
2022-11-24T07:53:45.409Z,87.70
2022-11-24T07:56:13.840Z,87.80
2022-11-24T07:58:41.679Z,87.70
2022-11-24T08:01:17.218Z,87.90
2022-11-24T08:03:46.444Z,88.00
2022-11-24T08:06:38.691Z,87.90
2022-11-24T08:09:02.638Z,87.60
2022-11-24T08:11:31.828Z,87.20
2022-11-24T08:13:59.497Z,87.10
2022-11-24T08:16:27.119Z,87.50
2022-11-24T08:18:55.909Z,87.70
2022-11-24T08:21:23.947Z,87.40
2022-11-24T08:23:55.436Z,87.40
2022-11-24T08:26:25.352Z,87.30
2022-11-24T08:28:58.537Z,87.30
2022-11-24T08:31:33.629Z,87.20
2022-11-24T08:34:03.413Z,87.10
2022-11-24T08:36:31.113Z,87.40
2022-11-24T08:39:00.901Z,87.60
2022-11-24T08:41:29.559Z,87.30
2022-11-24T08:43:57.077Z,87.20
2022-11-24T08:46:25.150Z,87.10
2022-11-24T08:48:54.836Z,86.80
2022-11-24T08:51:24.674Z,87.20
2022-11-24T08:53:59.153Z,86.80
2022-11-24T08:56:28.762Z,87.10
2022-11-24T08:58:57.065Z,87.00
2022-11-24T09:01:25.273Z,86.90
2022-11-24T09:03:53.373Z,86.70
2022-11-24T09:06:25.256Z,86.90
2022-11-24T09:08:54.787Z,86.80
2022-11-24T09:11:22.834Z,89.30
2022-11-24T09:13:50.717Z,87.10
2022-11-24T09:16:29.471Z,86.20
2022-11-24T09:19:02.313Z,85.90
2022-11-24T09:21:31.562Z,86.10
2022-11-24T09:23:59.270Z,86.30
2022-11-24T09:26:35.716Z,92.90
2022-11-24T09:29:05.571Z,85.50
2022-11-24T09:31:35.948Z,85.30
2022-11-24T09:34:06.208Z,84.40
2022-11-24T09:36:33.932Z,84.10
2022-11-24T09:39:01.751Z,84.00
2022-11-24T09:42:07.184Z,84.60
2022-11-24T09:44:46.614Z,85.00
2022-11-24T09:47:23.124Z,85.10
2022-11-24T09:50:04.022Z,85.10
2022-11-24T09:53:03.923Z,85.30
2022-11-24T09:55:37.073Z,85.70
2022-11-24T09:58:30.733Z,85.60
2022-11-24T10:00:59.471Z,85.50
2022-11-24T10:03:38.793Z,85.70
2022-11-24T10:06:26.839Z,85.70
2022-11-24T10:08:57.193Z,85.60
2022-11-24T10:11:39.048Z,86.10
2022-11-24T10:14:28.395Z,86.20
2022-11-24T10:17:24.902Z,86.60
2022-11-24T10:20:06.789Z,85.40
2022-11-24T10:22:43.376Z,85.80
2022-11-24T10:25:21.712Z,86.00
2022-11-24T10:28:03.668Z,86.10
2022-11-24T10:30:31.735Z,85.90
2022-11-24T10:33:23.170Z,85.70
2022-11-24T10:35:58.324Z,85.40
2022-11-24T10:39:06.181Z,85.90
2022-11-24T10:41:42.739Z,85.60
2022-11-24T10:44:16.689Z,85.50
2022-11-24T10:46:44.484Z,85.90
2022-11-24T10:49:20.999Z,85.80
2022-11-24T10:52:05.459Z,85.90
2022-11-24T10:54:33.584Z,85.50
2022-11-24T10:57:01.290Z,85.70
2022-11-24T10:59:38.508Z,85.60
2022-11-24T11:02:29.958Z,85.60
2022-11-24T11:04:57.777Z,85.90
2022-11-24T11:07:27.256Z,85.60
2022-11-24T11:10:22.006Z,85.80
2022-11-24T11:12:50.167Z,85.80
2022-11-24T11:15:31.319Z,85.60
2022-11-24T11:18:02.083Z,85.70
2022-11-24T11:20:34.979Z,85.50
2022-11-24T11:23:14.889Z,85.90
2022-11-24T11:25:44.077Z,86.10
2022-11-24T11:28:19.012Z,85.70
2022-11-24T11:31:18.003Z,85.50
2022-11-24T11:34:07.267Z,85.70
2022-11-24T11:36:42.061Z,86.10
2022-11-24T11:39:36.794Z,85.80
2022-11-24T11:42:45.392Z,85.70
2022-11-24T11:45:23.403Z,85.50
2022-11-24T11:48:02.801Z,85.40
2022-11-24T11:51:21.587Z,85.30
2022-11-24T11:54:05.424Z,85.20
2022-11-24T11:56:46.715Z,85.30
2022-11-24T11:59:41.956Z,85.50
2022-11-24T12:03:01.206Z,85.40
2022-11-24T12:05:32.033Z,85.30
2022-11-24T12:08:10.951Z,85.40
2022-11-24T12:10:53.552Z,87.10
2022-11-24T12:13:39.672Z,85.10
2022-11-24T12:16:13.030Z,85.00
2022-11-24T12:19:04.911Z,85.00
2022-11-24T12:21:47.799Z,85.20
2022-11-24T12:24:27.149Z,85.00
2022-11-24T12:26:59.413Z,85.00
2022-11-24T12:29:33.470Z,85.30
2022-11-24T12:32:21.713Z,85.30
2022-11-24T12:35:03.422Z,84.90
2022-11-24T12:37:43.068Z,85.10
2022-11-24T12:40:30.728Z,85.00
2022-11-24T12:43:18.459Z,85.10
2022-11-24T12:45:45.882Z,85.20
2022-11-24T12:48:43.388Z,85.10
2022-11-24T12:51:20.575Z,85.10
2022-11-24T12:53:51.124Z,85.40
2022-11-24T12:56:26.320Z,85.30
2022-11-24T12:59:16.360Z,85.70
2022-11-24T13:02:02.449Z,85.60
2022-11-24T13:04:47.103Z,85.30
2022-11-24T13:07:40.178Z,85.50
2022-11-24T13:10:53.565Z,85.50
2022-11-24T13:13:17.585Z,85.70
2022-11-24T13:18:57.658Z,85.70
2022-11-24T13:21:32.588Z,85.60
2022-11-24T13:24:05.747Z,85.80
2022-11-24T13:26:35.354Z,86.00
2022-11-24T13:29:18.240Z,85.90
2022-11-24T13:31:52.797Z,85.90
2022-11-24T13:34:48.840Z,86.00
2022-11-24T13:37:34.857Z,86.10
2022-11-24T13:40:23.545Z,85.90
2022-11-24T13:43:06.422Z,86.00
2022-11-24T13:45:51.796Z,86.10
2022-11-24T13:48:22.984Z,86.10
2022-11-24T13:50:50.677Z,86.00
2022-11-24T13:53:33.983Z,86.20
2022-11-24T13:56:21.276Z,86.10
2022-11-24T13:58:50.823Z,86.00
2022-11-24T14:01:21.323Z,86.10
2022-11-24T14:04:32.597Z,86.30
2022-11-24T14:07:08.795Z,85.90
2022-11-24T14:09:46.152Z,86.00
2022-11-24T14:12:17.181Z,86.20
2022-11-24T14:14:46.854Z,85.80
2022-11-24T14:17:18.151Z,86.00
2022-11-24T14:19:48.805Z,86.10
2022-11-24T14:22:27.135Z,85.90
2022-11-24T14:25:02.502Z,86.20
2022-11-24T14:27:39.284Z,85.90
2022-11-24T14:30:11.144Z,86.10
2022-11-24T14:32:39.001Z,86.30
2022-11-24T14:35:27.186Z,86.10
2022-11-24T14:37:54.841Z,85.80
2022-11-24T14:40:54.223Z,85.70
2022-11-24T14:43:23.874Z,85.90
2022-11-24T14:46:09.672Z,85.80
2022-11-24T14:48:39.222Z,85.80
2022-11-24T14:51:17.622Z,86.10
2022-11-24T14:53:47.401Z,86.30
2022-11-24T14:56:25.412Z,86.40
2022-11-24T14:58:55.046Z,86.60
2022-11-24T15:01:29.429Z,86.60
2022-11-24T15:05:01.397Z,86.90
2022-11-24T15:07:27.565Z,87.10
2022-11-24T15:10:00.547Z,87.40
2022-11-24T15:12:29.667Z,87.50
2022-11-24T15:15:16.866Z,87.30
2022-11-24T15:17:59.549Z,87.30
2022-11-24T15:20:35.566Z,87.50
2022-11-24T15:23:28.826Z,87.40
2022-11-24T15:25:57.869Z,87.40
2022-11-24T15:28:26.952Z,87.20
2022-11-24T15:30:57.272Z,87.10
2022-11-24T15:33:25.385Z,87.10
2022-11-24T15:35:53.065Z,87.00
2022-11-24T15:38:21.186Z,87.30
2022-11-24T15:40:51.439Z,87.00
2022-11-24T15:43:42.504Z,86.80
2022-11-24T15:46:12.027Z,87.00
2022-11-24T15:48:39.834Z,87.00
2022-11-24T15:51:11.796Z,86.50
2022-11-24T15:53:43.337Z,86.70
2022-11-24T15:56:24.906Z,87.10
2022-11-24T15:58:55.125Z,87.10
2022-11-24T16:01:25.017Z,87.10
2022-11-24T16:03:52.694Z,86.90
2022-11-24T16:06:25.093Z,87.00
2022-11-24T16:08:54.404Z,86.90
2022-11-24T16:11:24.387Z,87.20
2022-11-24T16:13:53.930Z,87.20
2022-11-24T16:16:28.276Z,87.10
2022-11-24T16:18:56.846Z,87.40
2022-11-24T16:21:27.372Z,87.60
2022-11-24T16:23:56.523Z,88.40
2022-11-24T16:26:24.897Z,88.30
2022-11-24T16:28:55.472Z,88.70
2022-11-24T16:31:23.170Z,88.90
2022-11-24T16:33:51.440Z,89.10
2022-11-24T16:36:19.003Z,89.40
2022-11-24T16:38:46.676Z,89.60
2022-11-24T16:41:15.013Z,89.70
2022-11-24T16:43:43.093Z,90.10
2022-11-24T16:46:21.739Z,90.10
2022-11-24T16:48:54.174Z,90.30
2022-11-24T16:51:23.701Z,90.40
2022-11-24T16:54:00.110Z,90.60
2022-11-24T16:56:31.357Z,90.40
2022-11-24T16:58:58.793Z,90.50
2022-11-24T17:01:27.223Z,90.60
2022-11-24T17:03:55.927Z,90.60
2022-11-24T17:06:24.734Z,90.60
2022-11-24T17:08:56.724Z,90.80
2022-11-24T17:11:27.876Z,90.90
2022-11-24T17:13:58.879Z,90.70
2022-11-24T17:16:27.057Z,90.80
2022-11-24T17:18:54.909Z,90.80
2022-11-24T17:21:24.904Z,90.90
2022-11-24T17:23:57.629Z,91.20
2022-11-24T17:26:26.308Z,91.20
2022-11-24T17:28:56.281Z,91.00
2022-11-24T17:31:26.907Z,90.90
2022-11-24T17:33:57.209Z,91.00
2022-11-24T17:36:24.987Z,91.10
2022-11-24T17:38:54.333Z,90.90
2022-11-24T17:41:23.666Z,91.00
2022-11-24T17:43:57.306Z,91.30
2022-11-24T17:46:28.142Z,91.20
2022-11-24T17:48:56.502Z,91.00
2022-11-24T17:51:27.468Z,90.80
2022-11-24T17:53:58.194Z,91.10
2022-11-24T17:56:28.460Z,91.10
2022-11-24T17:59:09.094Z,91.00
2022-11-24T18:01:39.176Z,91.30
2022-11-24T18:04:07.636Z,91.30
2022-11-24T18:06:36.822Z,91.30
2022-11-24T18:09:07.711Z,91.20
2022-11-24T18:11:37.981Z,91.40
2022-11-24T18:14:05.875Z,91.40
2022-11-24T18:16:35.936Z,91.70
2022-11-24T18:19:12.328Z,91.70
2022-11-24T18:21:42.478Z,91.50
2022-11-24T18:24:14.008Z,91.60
2022-11-24T18:26:44.933Z,91.30
2022-11-24T18:29:14.844Z,91.60
2022-11-24T18:31:44.413Z,91.50
2022-11-24T18:34:12.939Z,91.50
2022-11-24T18:36:41.752Z,91.60
2022-11-24T18:39:10.284Z,91.50
2022-11-24T18:41:40.409Z,91.70
2022-11-24T18:44:09.690Z,91.70
2022-11-24T18:46:38.594Z,91.50
2022-11-24T18:49:14.704Z,91.50
2022-11-24T18:51:43.051Z,91.50
2022-11-24T18:54:11.956Z,91.60
2022-11-24T18:56:47.484Z,91.90
2022-11-24T18:59:18.708Z,91.50
2022-11-24T19:01:48.051Z,91.80
2022-11-24T19:04:16.716Z,91.70
2022-11-24T19:06:45.042Z,91.90
2022-11-24T19:09:17.119Z,91.70
2022-11-24T19:11:46.838Z,91.80
2022-11-24T19:14:17.429Z,91.70
2022-11-24T19:16:48.868Z,91.70
2022-11-24T19:19:17.675Z,91.60
2022-11-24T19:21:45.625Z,91.70
2022-11-24T19:24:13.713Z,91.80
2022-11-24T19:26:41.706Z,91.70
2022-11-24T19:29:10.747Z,91.40
2022-11-24T19:31:40.104Z,91.60
2022-11-24T19:34:08.806Z,91.90
2022-11-24T19:36:50.156Z,91.90
2022-11-24T19:39:18.108Z,91.80
2022-11-24T19:41:46.145Z,91.80
2022-11-24T19:44:14.505Z,91.70
2022-11-24T19:46:46.594Z,91.80
2022-11-24T19:49:14.504Z,91.60
2022-11-24T19:51:42.238Z,91.70
2022-11-24T19:54:14.702Z,91.90
2022-11-24T19:56:43.794Z,91.50
2022-11-24T19:59:16.528Z,91.60
2022-11-24T20:01:44.638Z,91.30
2022-11-24T20:04:15.323Z,91.50
2022-11-24T20:06:45.957Z,91.80
2022-11-24T20:09:16.271Z,91.80
2022-11-24T20:11:45.068Z,91.90
2022-11-24T20:14:14.592Z,91.90
2022-11-24T20:16:42.692Z,91.90
2022-11-24T20:19:15.704Z,91.60
2022-11-24T20:21:46.592Z,91.60
2022-11-24T20:24:25.260Z,91.70
2022-11-24T20:26:56.830Z,92.00
2022-11-24T20:29:26.179Z,91.60
2022-11-24T20:31:56.320Z,91.50
2022-11-24T20:34:24.864Z,91.50
2022-11-24T20:36:53.308Z,91.20
2022-11-24T20:39:25.664Z,91.50
2022-11-24T20:41:54.493Z,91.60
2022-11-24T20:44:23.107Z,91.70
2022-11-24T20:46:51.029Z,91.30
2022-11-24T20:49:22.304Z,91.60
2022-11-24T20:51:54.655Z,91.50
2022-11-24T20:54:22.440Z,91.60
2022-11-24T20:56:51.672Z,91.50
2022-11-24T20:59:22.986Z,91.50
2022-11-24T21:01:52.161Z,91.50
2022-11-24T21:04:22.931Z,91.50
2022-11-24T21:06:51.040Z,91.70
2022-11-24T21:09:19.372Z,91.80
2022-11-24T21:11:47.102Z,91.80
2022-11-24T21:14:14.883Z,91.90
2022-11-24T21:16:43.099Z,92.20
2022-11-24T21:19:14.051Z,92.20
2022-11-24T21:21:43.171Z,91.90
2022-11-24T21:24:18.802Z,91.90
2022-11-24T21:26:52.312Z,91.70
2022-11-24T21:29:22.720Z,91.80
2022-11-24T21:31:50.318Z,91.60
2022-11-24T21:34:19.330Z,91.60
2022-11-24T21:36:47.673Z,92.00
2022-11-24T21:39:15.957Z,92.00
2022-11-24T21:41:44.086Z,91.90
2022-11-24T21:44:13.434Z,91.90
2022-11-24T21:46:46.084Z,91.80
2022-11-24T21:49:17.140Z,92.10
2022-11-24T21:51:44.461Z,92.10
2022-11-24T21:54:11.814Z,92.30
2022-11-24T21:56:39.398Z,92.10
2022-11-24T21:59:06.774Z,92.20
2022-11-24T22:01:34.337Z,92.00
2022-11-24T22:04:01.961Z,91.90
2022-11-24T22:06:29.391Z,92.40
2022-11-24T22:08:56.809Z,92.00
2022-11-24T22:11:25.639Z,92.00
2022-11-24T22:13:53.547Z,92.10
2022-11-24T22:16:23.606Z,91.90
2022-11-24T22:18:51.385Z,91.70
2022-11-24T22:21:23.080Z,91.90
2022-11-24T22:23:53.779Z,91.70
2022-11-24T22:26:23.008Z,91.90
2022-11-24T22:28:51.092Z,91.80
2022-11-24T22:31:21.207Z,91.90
2022-11-24T22:33:49.661Z,91.90
2022-11-24T22:36:19.142Z,91.50
2022-11-24T22:38:46.642Z,92.00
2022-11-24T22:41:16.834Z,91.90
2022-11-24T22:43:45.434Z,91.80
2022-11-24T22:46:19.137Z,91.80
2022-11-24T22:48:48.880Z,91.80
2022-11-24T22:51:31.603Z,91.70
2022-11-24T22:54:04.250Z,91.60
2022-11-24T22:56:33.117Z,91.60
2022-11-24T22:59:02.046Z,91.70
2022-11-24T23:01:30.900Z,91.70
2022-11-24T23:03:58.573Z,91.90
2022-11-24T23:06:27.986Z,91.60
2022-11-24T23:08:56.168Z,91.70
2022-11-24T23:11:32.662Z,91.70
2022-11-24T23:14:04.751Z,91.60
2022-11-24T23:16:32.363Z,91.50
2022-11-24T23:19:00.103Z,91.40
2022-11-24T23:21:32.533Z,91.20
2022-11-24T23:24:02.563Z,91.50
2022-11-24T23:26:33.835Z,91.50
2022-11-24T23:29:01.618Z,91.40
2022-11-24T23:31:29.313Z,91.50
2022-11-24T23:34:01.948Z,91.60
2022-11-24T23:36:31.019Z,91.70
2022-11-24T23:39:14.750Z,91.50
2022-11-24T23:41:42.390Z,91.40
2022-11-24T23:44:10.038Z,91.30
2022-11-24T23:46:37.592Z,91.20
2022-11-24T23:49:05.201Z,91.30
2022-11-24T23:51:34.085Z,91.50
2022-11-24T23:54:01.784Z,91.30
2022-11-24T23:56:33.737Z,91.40
2022-11-24T23:59:03.180Z,91.30
